EJA1769 LFPB-LSZB
Flight info
| Callsign | EJA1769 |
|---|---|
| Flight time | 0h 44m |
| Altitude | 35000 |
| Route | BUBLI DCT LUVAL DCT OKIPO DCT LUL Y112 HR T626 LUTIX T627 BIRKI |
| Aircraft | CRJ7/M-SDFGIRWY/S |
Departure
| Time | 2026-04-23 10:17 |
|---|---|
| Airport | Paris-Le Bourget International Airport (LFPB) |
Arrival
| Time | 2026-04-23 11:02 |
|---|---|
| Airport | Bern Airport (LSZB) |
| Time | Latitude | Longitude | Altitude | Speed | Heading |
|---|---|---|---|---|---|
| 2026-04-23 09:53 | 48.95554 | 2.44093 | 153 ft | 0 kts | 22° |
| 2026-04-23 10:10 | 48.95555 | 2.44093 | 180 ft | 0 kts | 22° |
| 2026-04-23 10:10 | 48.95560 | 2.44093 | 180 ft | 2 kts | 345° |
| 2026-04-23 10:11 | 48.95565 | 2.44083 | 153 ft | 1 kts | 281° |
| 2026-04-23 10:11 | 48.95564 | 2.44077 | 153 ft | 1 kts | 232° |
| 2026-04-23 10:11 | 48.95548 | 2.44058 | 153 ft | 5 kts | 236° |
| 2026-04-23 10:11 | 48.95550 | 2.44018 | 153 ft | 4 kts | 292° |
| 2026-04-23 10:12 | 48.95559 | 2.43996 | 153 ft | 1 kts | 320° |
| 2026-04-23 10:12 | 48.95581 | 2.43981 | 154 ft | 5 kts | 358° |
| 2026-04-23 10:12 | 48.95626 | 2.44008 | 154 ft | 10 kts | 24° |
| 2026-04-23 10:12 | 48.95702 | 2.43976 | 152 ft | 16 kts | 300° |
| 2026-04-23 10:13 | 48.95756 | 2.43797 | 154 ft | 21 kts | 295° |
| 2026-04-23 10:13 | 48.95816 | 2.43599 | 156 ft | 20 kts | 295° |
| 2026-04-23 10:13 | 48.95872 | 2.43417 | 160 ft | 19 kts | 295° |
| 2026-04-23 10:13 | 48.95933 | 2.43219 | 157 ft | 22 kts | 295° |
| 2026-04-23 10:14 | 48.96022 | 2.43006 | 151 ft | 26 kts | 308° |
| 2026-04-23 10:14 | 48.96136 | 2.42791 | 153 ft | 26 kts | 309° |
| 2026-04-23 10:14 | 48.96229 | 2.42613 | 159 ft | 16 kts | 308° |
| 2026-04-23 10:14 | 48.96271 | 2.42469 | 159 ft | 16 kts | 271° |
| 2026-04-23 10:15 | 48.96264 | 2.42284 | 158 ft | 18 kts | 267° |
| 2026-04-23 10:15 | 48.96266 | 2.42125 | 158 ft | 13 kts | 291° |
| 2026-04-23 10:15 | 48.96344 | 2.42061 | 155 ft | 15 kts | 6° |
| 2026-04-23 10:15 | 48.96407 | 2.42114 | 154 ft | 3 kts | 63° |
| 2026-04-23 10:16 | 48.96436 | 2.42205 | 156 ft | 31 kts | 67° |
| 2026-04-23 10:17 | 48.96588 | 2.42788 | 172 ft | 87 kts | 68° |
| 2026-04-23 10:17 | 48.96877 | 2.43870 | 199 ft | 129 kts | 68° |
| 2026-04-23 10:17 | 48.97225 | 2.45146 | 692 ft | 129 kts | 66° |
| 2026-04-23 10:17 | 48.97445 | 2.46492 | 1215 ft | 134 kts | 97° |
| 2026-04-23 10:18 | 48.97275 | 2.47805 | 1924 ft | 126 kts | 105° |
| 2026-04-23 10:18 | 48.96975 | 2.49117 | 2408 ft | 135 kts | 103° |
| 2026-04-23 10:18 | 48.96808 | 2.50476 | 3089 ft | 129 kts | 96° |
| 2026-04-23 10:18 | 48.96730 | 2.51977 | 3267 ft | 156 kts | 94° |
| 2026-04-23 10:19 | 48.96668 | 2.53744 | 3495 ft | 180 kts | 93° |
| 2026-04-23 10:19 | 48.96588 | 2.55745 | 3954 ft | 200 kts | 94° |
| 2026-04-23 10:19 | 48.96466 | 2.57958 | 4392 ft | 220 kts | 96° |
| 2026-04-23 10:19 | 48.96316 | 2.60363 | 4893 ft | 236 kts | 96° |
| 2026-04-23 10:20 | 48.96152 | 2.62910 | 5521 ft | 244 kts | 95° |
| 2026-04-23 10:20 | 48.95982 | 2.65521 | 6207 ft | 250 kts | 95° |
| 2026-04-23 10:20 | 48.95817 | 2.68151 | 6925 ft | 253 kts | 95° |
| 2026-04-23 10:20 | 48.95647 | 2.70836 | 7609 ft | 256 kts | 95° |
| 2026-04-23 10:21 | 48.95474 | 2.73559 | 8375 ft | 259 kts | 95° |
| 2026-04-23 10:21 | 48.95296 | 2.76317 | 9229 ft | 264 kts | 95° |
| 2026-04-23 10:21 | 48.95107 | 2.79112 | 10098 ft | 268 kts | 96° |
| 2026-04-23 10:21 | 48.94884 | 2.81939 | 10919 ft | 270 kts | 96° |
| 2026-04-23 10:22 | 48.94659 | 2.84878 | 11332 ft | 290 kts | 96° |
| 2026-04-23 10:22 | 48.94429 | 2.88000 | 11686 ft | 309 kts | 96° |
| 2026-04-23 10:22 | 48.94185 | 2.91327 | 12136 ft | 323 kts | 96° |
| 2026-04-23 10:22 | 48.93929 | 2.94755 | 12912 ft | 328 kts | 96° |
| 2026-04-23 10:23 | 48.93667 | 2.98223 | 13592 ft | 334 kts | 96° |
| 2026-04-23 10:23 | 48.93447 | 3.01173 | 14250 ft | 335 kts | 96° |
| 2026-04-23 10:23 | 48.93181 | 3.04682 | 14940 ft | 338 kts | 96° |
| 2026-04-23 10:23 | 48.92912 | 3.08267 | 15548 ft | 343 kts | 96° |
| 2026-04-23 10:24 | 48.92583 | 3.11869 | 16142 ft | 348 kts | 103° |
| 2026-04-23 10:24 | 48.91590 | 3.15228 | 16796 ft | 351 kts | 117° |
| 2026-04-23 10:24 | 48.90500 | 3.18557 | 17507 ft | 351 kts | 113° |
| 2026-04-23 10:24 | 48.89605 | 3.22036 | 18048 ft | 356 kts | 109° |
| 2026-04-23 10:25 | 48.88760 | 3.25599 | 18620 ft | 360 kts | 111° |
| 2026-04-23 10:25 | 48.87670 | 3.29024 | 19162 ft | 361 kts | 118° |
| 2026-04-23 10:25 | 48.86435 | 3.32361 | 19693 ft | 363 kts | 120° |
| 2026-04-23 10:25 | 48.85135 | 3.35663 | 20208 ft | 365 kts | 121° |
| 2026-04-23 10:26 | 48.83789 | 3.38942 | 20724 ft | 367 kts | 122° |
| 2026-04-23 10:26 | 48.82436 | 3.42242 | 21237 ft | 369 kts | 121° |
| 2026-04-23 10:26 | 48.81164 | 3.45627 | 21742 ft | 370 kts | 119° |
| 2026-04-23 10:26 | 48.79917 | 3.49062 | 22221 ft | 372 kts | 119° |
| 2026-04-23 10:27 | 48.78682 | 3.52456 | 22750 ft | 371 kts | 120° |
| 2026-04-23 10:27 | 48.77401 | 3.55862 | 23216 ft | 373 kts | 121° |
| 2026-04-23 10:27 | 48.76111 | 3.59283 | 23650 ft | 374 kts | 120° |
| 2026-04-23 10:27 | 48.74821 | 3.62715 | 24052 ft | 376 kts | 121° |
| 2026-04-23 10:28 | 48.73513 | 3.66158 | 24393 ft | 378 kts | 121° |
| 2026-04-23 10:28 | 48.72203 | 3.69627 | 24723 ft | 379 kts | 121° |
| 2026-04-23 10:28 | 48.70888 | 3.73109 | 25043 ft | 381 kts | 121° |
| 2026-04-23 10:28 | 48.69563 | 3.76597 | 25356 ft | 383 kts | 121° |
| 2026-04-23 10:29 | 48.68231 | 3.80100 | 25652 ft | 385 kts | 121° |
| 2026-04-23 10:29 | 48.66897 | 3.83613 | 25954 ft | 386 kts | 121° |
| 2026-04-23 10:29 | 48.65568 | 3.87103 | 26237 ft | 388 kts | 121° |
| 2026-04-23 10:29 | 48.64215 | 3.90647 | 26523 ft | 390 kts | 121° |
| 2026-04-23 10:30 | 48.62859 | 3.94205 | 26801 ft | 391 kts | 121° |
| 2026-04-23 10:30 | 48.61494 | 3.97773 | 27066 ft | 393 kts | 121° |
| 2026-04-23 10:30 | 48.60304 | 4.00882 | 27293 ft | 394 kts | 121° |
| 2026-04-23 10:30 | 48.58987 | 4.04322 | 27534 ft | 396 kts | 121° |
| 2026-04-23 10:31 | 48.57601 | 4.07926 | 27747 ft | 398 kts | 121° |
| 2026-04-23 10:31 | 48.56199 | 4.11564 | 27931 ft | 401 kts | 120° |
| 2026-04-23 10:31 | 48.54799 | 4.15220 | 28162 ft | 403 kts | 121° |
| 2026-04-23 10:31 | 48.53384 | 4.18884 | 28379 ft | 404 kts | 121° |
| 2026-04-23 10:32 | 48.51969 | 4.22556 | 28594 ft | 406 kts | 121° |
| 2026-04-23 10:32 | 48.50539 | 4.26249 | 28797 ft | 408 kts | 121° |
| 2026-04-23 10:32 | 48.49110 | 4.29945 | 28968 ft | 410 kts | 121° |
| 2026-04-23 10:32 | 48.47673 | 4.33661 | 29188 ft | 411 kts | 121° |
| 2026-04-23 10:33 | 48.46225 | 4.37387 | 29295 ft | 414 kts | 121° |
| 2026-04-23 10:33 | 48.44764 | 4.41152 | 29338 ft | 418 kts | 121° |
| 2026-04-23 10:33 | 48.41797 | 4.48774 | 29356 ft | 426 kts | 121° |
| 2026-04-23 10:34 | 48.38804 | 4.56431 | 29354 ft | 433 kts | 121° |
| 2026-04-23 10:34 | 48.35735 | 4.64260 | 29353 ft | 439 kts | 121° |
| 2026-04-23 10:35 | 48.32612 | 4.72203 | 29356 ft | 443 kts | 121° |
| 2026-04-23 10:35 | 48.29484 | 4.80156 | 29347 ft | 446 kts | 121° |
| 2026-04-23 10:36 | 48.26310 | 4.88187 | 29346 ft | 447 kts | 120° |
| 2026-04-23 10:36 | 48.23125 | 4.96215 | 29343 ft | 448 kts | 121° |
| 2026-04-23 10:37 | 48.20204 | 5.03559 | 29343 ft | 449 kts | 121° |
| 2026-04-23 10:37 | 48.17000 | 5.11594 | 29340 ft | 449 kts | 121° |
| 2026-04-23 10:38 | 48.13784 | 5.19649 | 29340 ft | 450 kts | 121° |
| 2026-04-23 10:38 | 48.10576 | 5.27643 | 29339 ft | 450 kts | 121° |
| 2026-04-23 10:39 | 48.07343 | 5.35677 | 29345 ft | 450 kts | 120° |
| 2026-04-23 10:39 | 48.04111 | 5.43694 | 29341 ft | 450 kts | 121° |
| 2026-04-23 10:40 | 48.00868 | 5.51707 | 29341 ft | 450 kts | 121° |
| 2026-04-23 10:40 | 47.99557 | 5.54944 | 29331 ft | 431 kts | 121° |
| 2026-04-23 10:40 | 47.98044 | 5.58667 | 29325 ft | 410 kts | 121° |
| 2026-04-23 10:41 | 47.95156 | 5.65763 | 29318 ft | 391 kts | 121° |
| 2026-04-23 10:41 | 47.92370 | 5.72589 | 29327 ft | 386 kts | 121° |
| 2026-04-23 10:42 | 47.89561 | 5.79456 | 29338 ft | 390 kts | 121° |
| 2026-04-23 10:42 | 47.88141 | 5.82929 | 29105 ft | 397 kts | 121° |
| 2026-04-23 10:42 | 47.86684 | 5.86474 | 28769 ft | 406 kts | 121° |
| 2026-04-23 10:43 | 47.85191 | 5.90108 | 28444 ft | 414 kts | 121° |
| 2026-04-23 10:43 | 47.83673 | 5.93805 | 28098 ft | 423 kts | 121° |
| 2026-04-23 10:43 | 47.82115 | 5.97581 | 27755 ft | 430 kts | 121° |
| 2026-04-23 10:43 | 47.80804 | 6.00768 | 27476 ft | 435 kts | 121° |
| 2026-04-23 10:44 | 47.79252 | 6.04517 | 27142 ft | 418 kts | 121° |
| 2026-04-23 10:44 | 47.77775 | 6.08095 | 26809 ft | 403 kts | 121° |
| 2026-04-23 10:44 | 47.76333 | 6.11566 | 26488 ft | 385 kts | 121° |
| 2026-04-23 10:44 | 47.74949 | 6.14905 | 26185 ft | 372 kts | 121° |
| 2026-04-23 10:45 | 47.73614 | 6.18130 | 25890 ft | 361 kts | 121° |
| 2026-04-23 10:45 | 47.72295 | 6.21301 | 25618 ft | 362 kts | 121° |
| 2026-04-23 10:45 | 47.70949 | 6.24530 | 25363 ft | 371 kts | 121° |
| 2026-04-23 10:45 | 47.69575 | 6.27837 | 25091 ft | 380 kts | 120° |
| 2026-04-23 10:46 | 47.68247 | 6.31292 | 24607 ft | 389 kts | 115° |
| 2026-04-23 10:46 | 47.67138 | 6.34923 | 24149 ft | 393 kts | 111° |
| 2026-04-23 10:46 | 47.66127 | 6.38687 | 23629 ft | 392 kts | 111° |
| 2026-04-23 10:46 | 47.65124 | 6.42440 | 23066 ft | 389 kts | 111° |
| 2026-04-23 10:47 | 47.64088 | 6.46143 | 22531 ft | 387 kts | 112° |
| 2026-04-23 10:47 | 47.63028 | 6.49805 | 22002 ft | 385 kts | 112° |
| 2026-04-23 10:47 | 47.61970 | 6.53443 | 21493 ft | 381 kts | 112° |
| 2026-04-23 10:47 | 47.60936 | 6.57026 | 20991 ft | 373 kts | 112° |
| 2026-04-23 10:48 | 47.59923 | 6.60514 | 20522 ft | 363 kts | 112° |
| 2026-04-23 10:48 | 47.58947 | 6.63862 | 20071 ft | 354 kts | 113° |
| 2026-04-23 10:48 | 47.57982 | 6.67179 | 19627 ft | 347 kts | 113° |
| 2026-04-23 10:48 | 47.57034 | 6.70425 | 19189 ft | 340 kts | 112° |
| 2026-04-23 10:49 | 47.55925 | 6.73491 | 18757 ft | 336 kts | 123° |
| 2026-04-23 10:49 | 47.54512 | 6.76295 | 18290 ft | 344 kts | 128° |
| 2026-04-23 10:49 | 47.52929 | 6.79021 | 17811 ft | 353 kts | 130° |
| 2026-04-23 10:49 | 47.51273 | 6.81749 | 17331 ft | 360 kts | 130° |
| 2026-04-23 10:50 | 47.49583 | 6.84523 | 16850 ft | 366 kts | 130° |
| 2026-04-23 10:50 | 47.47890 | 6.87368 | 16362 ft | 371 kts | 129° |
| 2026-04-23 10:50 | 47.46770 | 6.89287 | 16041 ft | 374 kts | 129° |
| 2026-04-23 10:50 | 47.45058 | 6.92222 | 15562 ft | 378 kts | 129° |
| 2026-04-23 10:51 | 47.43330 | 6.95173 | 15075 ft | 381 kts | 129° |
| 2026-04-23 10:51 | 47.41587 | 6.98166 | 14587 ft | 385 kts | 129° |
| 2026-04-23 10:51 | 47.40182 | 7.00563 | 14195 ft | 376 kts | 129° |
| 2026-04-23 10:51 | 47.38479 | 7.03418 | 13658 ft | 364 kts | 129° |
| 2026-04-23 10:52 | 47.36806 | 7.06158 | 13136 ft | 354 kts | 130° |
| 2026-04-23 10:52 | 47.35128 | 7.08755 | 12621 ft | 342 kts | 130° |
| 2026-04-23 10:52 | 47.33496 | 7.11181 | 12129 ft | 322 kts | 130° |
| 2026-04-23 10:52 | 47.31961 | 7.13475 | 11674 ft | 306 kts | 130° |
| 2026-04-23 10:53 | 47.30512 | 7.15683 | 11261 ft | 293 kts | 129° |
| 2026-04-23 10:53 | 47.29987 | 7.16489 | 11115 ft | 289 kts | 130° |
| 2026-04-23 10:54 | 47.29639 | 7.17016 | 11023 ft | 286 kts | 130° |
| 2026-04-23 10:54 | 47.28279 | 7.19096 | 10668 ft | 276 kts | 130° |
| 2026-04-23 10:54 | 47.26975 | 7.21145 | 10317 ft | 274 kts | 129° |
| 2026-04-23 10:55 | 47.25669 | 7.23187 | 9916 ft | 274 kts | 130° |
| 2026-04-23 10:55 | 47.24342 | 7.25215 | 9519 ft | 275 kts | 130° |
| 2026-04-23 10:55 | 47.23020 | 7.27192 | 9148 ft | 273 kts | 131° |
| 2026-04-23 10:55 | 47.21696 | 7.29193 | 8777 ft | 272 kts | 131° |
| 2026-04-23 10:56 | 47.20371 | 7.31165 | 8401 ft | 270 kts | 130° |
| 2026-04-23 10:56 | 47.19057 | 7.33112 | 8033 ft | 266 kts | 130° |
| 2026-04-23 10:56 | 47.17781 | 7.35069 | 7700 ft | 264 kts | 131° |
| 2026-04-23 10:56 | 47.16502 | 7.37005 | 7347 ft | 264 kts | 133° |
| 2026-04-23 10:57 | 47.15080 | 7.38659 | 6998 ft | 258 kts | 140° |
| 2026-04-23 10:57 | 47.13618 | 7.40141 | 6675 ft | 252 kts | 143° |
| 2026-04-23 10:57 | 47.12167 | 7.41512 | 6409 ft | 245 kts | 147° |
| 2026-04-23 10:57 | 47.10545 | 7.42117 | 6093 ft | 244 kts | 180° |
| 2026-04-23 10:58 | 47.08880 | 7.41836 | 5853 ft | 237 kts | 185° |
| 2026-04-23 10:58 | 47.07277 | 7.41383 | 5563 ft | 234 kts | 194° |
| 2026-04-23 10:58 | 47.05754 | 7.40550 | 5347 ft | 232 kts | 199° |
| 2026-04-23 10:58 | 47.04284 | 7.39601 | 5052 ft | 230 kts | 201° |
| 2026-04-23 10:59 | 47.02840 | 7.38632 | 4796 ft | 227 kts | 200° |
| 2026-04-23 10:59 | 47.01343 | 7.38268 | 4531 ft | 214 kts | 165° |
| 2026-04-23 10:59 | 47.00070 | 7.39176 | 4419 ft | 194 kts | 142° |
| 2026-04-23 10:59 | 46.99179 | 7.40108 | 4282 ft | 190 kts | 137° |
| 2026-04-23 11:00 | 46.98137 | 7.41328 | 3895 ft | 194 kts | 136° |
| 2026-04-23 11:00 | 46.97148 | 7.42585 | 3670 ft | 179 kts | 134° |
| 2026-04-23 11:00 | 46.96277 | 7.43760 | 3250 ft | 161 kts | 135° |
| 2026-04-23 11:00 | 46.95508 | 7.44770 | 2932 ft | 135 kts | 139° |
| 2026-04-23 11:01 | 46.94790 | 7.45626 | 2589 ft | 136 kts | 142° |
| 2026-04-23 11:01 | 46.94068 | 7.46479 | 2383 ft | 132 kts | 142° |
| 2026-04-23 11:01 | 46.93371 | 7.47321 | 2181 ft | 130 kts | 140° |
| 2026-04-23 11:01 | 46.92690 | 7.48162 | 1988 ft | 126 kts | 142° |
| 2026-04-23 11:02 | 46.92027 | 7.48976 | 1759 ft | 129 kts | 143° |
| 2026-04-23 11:02 | 46.91341 | 7.49801 | 1681 ft | 101 kts | 141° |
| 2026-04-23 11:02 | 46.91089 | 7.50109 | 1738 ft | 13 kts | 138° |
| 2026-04-23 11:02 | 46.91072 | 7.50171 | 1739 ft | 3 kts | 66° |
| 2026-04-23 11:03 | 46.91089 | 7.50203 | 1743 ft | 7 kts | 52° |
| 2026-04-23 11:03 | 46.91103 | 7.50230 | 1736 ft | 4 kts | 51° |
| 2026-04-23 11:03 | 46.91109 | 7.50241 | 1746 ft | 5 kts | 51° |